createdAt,value
2018-09-20T00:01:13.210Z,5.67
2018-09-20T00:03:41.665Z,5.40
2018-09-20T00:06:10.088Z,5.27
2018-09-20T00:08:38.524Z,4.87
2018-09-20T00:11:07.165Z,5.17
2018-09-20T00:13:35.657Z,5.40
2018-09-20T00:16:04.105Z,5.40
2018-09-20T00:18:32.593Z,5.37
2018-09-20T00:21:00.994Z,5.57
2018-09-20T00:23:29.423Z,4.90
2018-09-20T00:25:57.882Z,5.60
2018-09-20T00:28:26.306Z,5.10
2018-09-20T00:30:54.721Z,5.70
2018-09-20T00:33:23.165Z,5.33
2018-09-20T00:35:51.686Z,5.73
2018-09-20T00:38:20.175Z,4.97
2018-09-20T00:40:48.627Z,5.53
2018-09-20T00:43:17.057Z,5.83
2018-09-20T00:45:45.478Z,5.43
2018-09-20T00:48:13.881Z,5.17
2018-09-20T00:50:42.298Z,5.40
2018-09-20T00:53:10.728Z,5.50
2018-09-20T00:55:39.176Z,5.50
2018-09-20T00:58:07.586Z,4.93
2018-09-20T01:00:36.036Z,6.17
2018-09-20T01:03:04.447Z,5.70
2018-09-20T01:05:32.878Z,5.23
2018-09-20T01:08:01.307Z,5.87
2018-09-20T01:10:29.741Z,5.40
2018-09-20T01:12:58.162Z,5.40
2018-09-20T01:15:26.602Z,5.40
2018-09-20T01:17:55.071Z,5.47
2018-09-20T01:20:23.555Z,5.30
2018-09-20T01:22:51.989Z,6.23
2018-09-20T01:25:20.401Z,5.27
2018-09-20T01:27:48.890Z,6.50
2018-09-20T01:30:17.314Z,5.73
2018-09-20T01:32:45.759Z,5.27
2018-09-20T01:35:14.208Z,6.27
2018-09-20T01:37:42.689Z,5.40
2018-09-20T01:40:11.084Z,5.73
2018-09-20T01:42:39.472Z,6.23
2018-09-20T01:45:07.962Z,5.50
2018-09-20T01:47:36.368Z,5.73
2018-09-20T01:50:05.147Z,6.50
2018-09-20T01:52:33.538Z,6.20
2018-09-20T01:55:01.958Z,5.47
2018-09-20T01:57:30.362Z,6.43
2018-09-20T01:59:58.841Z,6.87
2018-09-20T02:02:27.259Z,5.97
2018-09-20T02:04:56.857Z,5.83
2018-09-20T02:07:25.290Z,6.77
2018-09-20T02:09:53.713Z,5.77
2018-09-20T02:12:22.145Z,6.73
2018-09-20T02:14:50.554Z,5.97
2018-09-20T02:17:18.951Z,6.33
2018-09-20T02:19:48.359Z,5.90
2018-09-20T02:22:16.747Z,5.40
2018-09-20T02:24:45.192Z,6.23
2018-09-20T02:27:13.592Z,6.40
2018-09-20T02:29:41.998Z,5.67
2018-09-20T02:32:10.413Z,5.50
2018-09-20T02:34:38.850Z,5.57
2018-09-20T02:37:07.257Z,5.77
2018-09-20T02:39:35.682Z,6.23
2018-09-20T02:42:04.114Z,6.43
2018-09-20T02:44:32.541Z,6.00
2018-09-20T02:47:00.974Z,6.47
2018-09-20T02:49:29.379Z,6.63
2018-09-20T02:51:57.930Z,6.37
2018-09-20T02:54:26.446Z,6.23
2018-09-20T02:56:55.013Z,6.87
2018-09-20T02:59:23.515Z,6.60
2018-09-20T03:01:52.038Z,6.00
2018-09-20T03:04:20.560Z,6.10
2018-09-20T03:06:49.175Z,6.43
2018-09-20T03:09:17.668Z,6.00
2018-09-20T03:11:46.241Z,6.33
2018-09-20T03:14:14.787Z,6.47
2018-09-20T03:16:43.398Z,6.37
2018-09-20T03:19:11.931Z,5.70
2018-09-20T03:21:40.494Z,6.47
2018-09-20T03:24:09.061Z,6.07
2018-09-20T03:26:37.660Z,6.33
2018-09-20T03:29:06.301Z,6.03
2018-09-20T03:31:34.833Z,5.93
2018-09-20T03:34:05.497Z,6.10
2018-09-20T03:36:33.904Z,5.80
2018-09-20T03:39:02.338Z,5.87
2018-09-20T03:41:30.772Z,5.73
2018-09-20T03:43:59.191Z,6.30
2018-09-20T03:46:30.926Z,5.63
2018-09-20T03:48:59.530Z,5.90
2018-09-20T03:51:28.073Z,6.57
2018-09-20T03:53:56.610Z,6.80
2018-09-20T03:56:25.190Z,6.37
2018-09-20T03:58:53.763Z,5.57
2018-09-20T04:01:22.351Z,6.00
2018-09-20T04:03:50.981Z,6.07
2018-09-20T04:06:19.877Z,5.57
2018-09-20T04:08:48.528Z,5.87
2018-09-20T04:11:17.062Z,5.90
2018-09-20T04:13:45.702Z,6.07
2018-09-20T04:16:14.085Z,6.70
2018-09-20T04:18:42.541Z,6.30
2018-09-20T04:21:11.184Z,7.13
2018-09-20T04:23:39.852Z,6.20
2018-09-20T04:26:08.423Z,7.00
2018-09-20T04:28:37.105Z,7.13
2018-09-20T04:31:05.676Z,6.87
2018-09-20T04:33:34.214Z,6.50
2018-09-20T04:36:02.814Z,7.07
2018-09-20T04:38:31.362Z,6.87
2018-09-20T04:41:00.027Z,6.93
2018-09-20T04:43:28.630Z,6.07
2018-09-20T04:45:57.214Z,6.50
2018-09-20T04:48:25.820Z,6.07
2018-09-20T04:50:54.409Z,6.93
2018-09-20T04:53:23.009Z,7.13
2018-09-20T04:55:51.587Z,6.53
2018-09-20T04:58:20.173Z,7.00
2018-09-20T05:00:48.810Z,6.63
2018-09-20T05:03:17.438Z,6.97
2018-09-20T05:05:46.170Z,6.47
2018-09-20T05:08:14.895Z,6.37
2018-09-20T05:10:43.513Z,6.57
2018-09-20T05:13:12.153Z,6.93
2018-09-20T05:15:40.723Z,6.10
2018-09-20T05:18:09.365Z,6.23
2018-09-20T05:20:38.052Z,6.60
2018-09-20T05:23:06.711Z,6.53
2018-09-20T05:25:35.313Z,6.70
2018-09-20T05:28:03.919Z,6.20
2018-09-20T05:30:32.538Z,6.77
2018-09-20T05:33:01.122Z,6.43
2018-09-20T05:35:29.857Z,6.47
2018-09-20T05:37:58.465Z,6.40
2018-09-20T05:40:27.147Z,6.63
2018-09-20T05:42:55.856Z,6.53
2018-09-20T05:45:24.450Z,6.67
2018-09-20T05:47:52.966Z,6.07
2018-09-20T05:50:23.574Z,6.43
2018-09-20T05:52:52.124Z,6.80
2018-09-20T05:55:20.633Z,6.57
2018-09-20T05:57:49.250Z,6.97
2018-09-20T06:00:17.854Z,6.57
2018-09-20T06:02:46.506Z,7.27
2018-09-20T06:05:15.055Z,6.63
2018-09-20T06:07:43.747Z,6.70
2018-09-20T06:10:12.301Z,6.93
2018-09-20T06:12:40.946Z,6.70
2018-09-20T06:15:09.433Z,5.97
2018-09-20T06:17:37.961Z,6.30
2018-09-20T06:20:06.476Z,6.27
2018-09-20T06:22:34.898Z,6.63
2018-09-20T06:25:03.309Z,5.90
2018-09-20T06:27:31.762Z,5.27
2018-09-20T06:30:00.219Z,5.77
2018-09-20T06:32:28.797Z,5.57
2018-09-20T06:34:57.297Z,5.50
2018-09-20T06:37:25.669Z,5.20
2018-09-20T06:39:54.157Z,5.27
2018-09-20T06:42:22.611Z,5.70
2018-09-20T06:44:50.990Z,5.80
2018-09-20T06:47:19.429Z,5.50
2018-09-20T06:49:47.882Z,4.97
2018-09-20T06:52:16.374Z,5.17
2018-09-20T06:54:44.816Z,4.53
2018-09-20T06:57:13.221Z,5.33
2018-09-20T06:59:41.815Z,4.80
2018-09-20T07:02:11.233Z,4.83
2018-09-20T07:04:39.635Z,4.53
2018-09-20T07:07:08.119Z,4.53
2018-09-20T07:09:36.536Z,4.33
2018-09-20T07:12:04.989Z,4.47
2018-09-20T07:14:33.423Z,4.17
2018-09-20T07:17:02.109Z,4.80
2018-09-20T07:19:30.558Z,4.47
2018-09-20T07:21:59.000Z,4.20
2018-09-20T07:24:27.442Z,4.30
2018-09-20T07:26:55.820Z,4.30
2018-09-20T07:29:24.381Z,4.37
2018-09-20T07:31:52.789Z,4.50
2018-09-20T07:34:21.197Z,4.47
2018-09-20T07:36:49.657Z,4.50
2018-09-20T07:39:18.133Z,4.80
2018-09-20T07:41:46.527Z,4.60
2018-09-20T07:44:14.926Z,4.50
2018-09-20T07:46:43.313Z,3.97
2018-09-20T07:49:11.705Z,4.30
2018-09-20T07:51:40.113Z,4.60
2018-09-20T07:54:08.527Z,4.27
2018-09-20T07:56:36.965Z,4.20
2018-09-20T07:59:05.385Z,4.50
2018-09-20T08:01:32.822Z,4.30
2018-09-20T08:04:01.190Z,4.20
2018-09-20T08:06:29.690Z,4.10
2018-09-20T08:08:58.214Z,4.43
2018-09-20T08:11:26.718Z,4.50
2018-09-20T08:13:55.139Z,3.90
2018-09-20T08:16:23.533Z,4.67
2018-09-20T08:18:52.005Z,4.20
2018-09-20T08:21:20.439Z,4.17
2018-09-20T08:23:48.911Z,4.37
2018-09-20T08:26:17.317Z,3.90
2018-09-20T08:28:45.911Z,4.90
2018-09-20T08:31:14.355Z,4.73
2018-09-20T08:33:42.774Z,4.10
2018-09-20T08:36:11.190Z,3.97
2018-09-20T08:38:39.620Z,3.97
2018-09-20T08:41:08.174Z,4.40
2018-09-20T08:43:37.712Z,3.90
2018-09-20T08:46:06.110Z,4.30
2018-09-20T08:48:34.542Z,4.30
2018-09-20T08:51:03.007Z,4.17
2018-09-20T08:53:31.458Z,4.03
2018-09-20T08:55:59.966Z,3.90
2018-09-20T08:58:31.923Z,4.33
2018-09-20T09:01:01.406Z,4.03
2018-09-20T09:03:29.983Z,3.93
2018-09-20T09:05:58.513Z,3.80
2018-09-20T09:08:26.995Z,4.27
2018-09-20T09:10:55.453Z,4.20
2018-09-20T09:13:23.915Z,4.43
2018-09-20T09:15:52.325Z,4.10
2018-09-20T09:18:20.762Z,3.67
2018-09-20T09:20:49.305Z,3.70
2018-09-20T09:23:17.737Z,4.33
2018-09-20T09:25:46.149Z,4.17
2018-09-20T09:28:14.726Z,3.70
2018-09-20T09:30:43.122Z,4.37
2018-09-20T09:33:11.489Z,4.13
2018-09-20T09:35:39.938Z,4.07
2018-09-20T09:38:08.386Z,3.80
2018-09-20T09:40:36.923Z,3.60
2018-09-20T09:43:05.346Z,3.93
2018-09-20T09:45:33.828Z,4.20
2018-09-20T09:48:02.307Z,3.77
2018-09-20T09:50:30.673Z,3.60
2018-09-20T09:52:59.104Z,3.47
2018-09-20T09:55:27.513Z,3.47
2018-09-20T09:57:55.925Z,3.50
2018-09-20T10:00:29.629Z,3.63
2018-09-20T10:02:58.849Z,3.30
2018-09-20T10:05:27.337Z,3.50
2018-09-20T10:07:56.233Z,4.07
2018-09-20T10:10:24.692Z,3.60
2018-09-20T10:12:53.114Z,3.60
2018-09-20T10:15:21.575Z,3.40
2018-09-20T10:17:49.995Z,4.10
2018-09-20T10:20:19.186Z,3.47
2018-09-20T10:22:47.602Z,3.60
2018-09-20T10:25:16.029Z,3.50
2018-09-20T10:27:44.477Z,3.93
2018-09-20T10:30:12.897Z,3.50
2018-09-20T10:32:41.390Z,3.60
2018-09-20T10:35:09.853Z,3.40
2018-09-20T10:37:38.726Z,3.63
2018-09-20T10:40:07.264Z,3.47
2018-09-20T10:42:35.657Z,3.80
2018-09-20T10:45:04.166Z,3.53
2018-09-20T10:47:32.560Z,4.10
2018-09-20T10:50:01.031Z,3.60
2018-09-20T10:52:29.421Z,3.40
2018-09-20T10:54:57.889Z,3.20
2018-09-20T10:57:26.317Z,3.27
2018-09-20T10:59:54.746Z,4.67
2018-09-20T11:02:23.166Z,3.90
2018-09-20T11:04:51.646Z,3.90
2018-09-20T11:07:20.200Z,3.60
2018-09-20T11:09:48.741Z,3.57
2018-09-20T11:12:17.248Z,3.23
2018-09-20T11:14:45.701Z,3.80
2018-09-20T11:17:14.493Z,3.07
2018-09-20T11:19:43.869Z,3.67
2018-09-20T11:22:12.447Z,3.40
2018-09-20T11:24:40.895Z,3.50
2018-09-20T11:27:09.350Z,3.60
2018-09-20T11:29:37.769Z,2.90
2018-09-20T11:32:06.195Z,3.27
2018-09-20T11:34:34.854Z,3.60
2018-09-20T11:37:03.284Z,3.80
2018-09-20T11:39:31.887Z,3.73
2018-09-20T11:42:06.737Z,3.67
2018-09-20T11:44:35.182Z,3.73
2018-09-20T11:47:03.606Z,3.30
2018-09-20T11:49:32.065Z,3.47
2018-09-20T11:52:00.486Z,3.53
2018-09-20T11:54:29.354Z,2.87
2018-09-20T11:56:58.306Z,3.50
2018-09-20T11:59:26.790Z,3.57
2018-09-20T12:01:55.289Z,3.20
2018-09-20T12:04:23.850Z,3.67
2018-09-20T12:06:52.351Z,3.33
2018-09-20T12:09:20.805Z,2.90
2018-09-20T12:11:49.231Z,4.00
2018-09-20T12:14:17.679Z,3.20
2018-09-20T12:16:46.097Z,3.57
2018-09-20T12:19:14.682Z,3.73
2018-09-20T12:21:43.110Z,3.20
2018-09-20T12:24:11.539Z,3.17
2018-09-20T12:26:39.994Z,3.27
2018-09-20T12:29:09.390Z,3.40
2018-09-20T12:31:37.919Z,3.02
2018-09-20T12:34:06.381Z,3.33
2018-09-20T12:36:34.824Z,2.87
2018-09-20T12:39:04.764Z,3.08
2018-09-20T12:41:33.177Z,3.40
2018-09-20T12:44:01.666Z,3.00
2018-09-20T12:46:30.110Z,3.10
2018-09-20T12:48:58.492Z,3.55
2018-09-20T12:51:26.917Z,3.00
2018-09-20T12:53:55.366Z,2.77
2018-09-20T12:56:23.801Z,2.67
2018-09-20T12:58:52.542Z,2.85
2018-09-20T13:01:22.080Z,3.42
2018-09-20T13:03:51.144Z,3.12
2018-09-20T13:06:19.729Z,2.92
2018-09-20T13:08:48.141Z,3.30
2018-09-20T13:11:16.633Z,3.10
2018-09-20T13:13:45.034Z,2.98
2018-09-20T13:16:13.477Z,3.12
2018-09-20T13:18:41.866Z,2.60
2018-09-20T13:21:10.699Z,2.92
2018-09-20T13:23:39.169Z,2.90
2018-09-20T13:26:07.781Z,2.70
2018-09-20T13:28:36.185Z,2.52
2018-09-20T13:31:04.641Z,2.80
2018-09-20T13:33:33.078Z,2.67
2018-09-20T13:36:01.564Z,2.47
2018-09-20T13:38:29.986Z,3.00
2018-09-20T13:40:58.466Z,3.25
2018-09-20T13:43:27.004Z,3.08
2018-09-20T13:45:55.453Z,2.72
2018-09-20T13:48:24.066Z,2.67
2018-09-20T13:50:52.608Z,2.80
2018-09-20T13:53:21.073Z,2.85
2018-09-20T13:55:49.506Z,2.90
2018-09-20T13:58:17.985Z,2.80
2018-09-20T14:00:46.481Z,3.22
2018-09-20T14:03:15.925Z,2.47
2018-09-20T14:05:44.324Z,2.27
2018-09-20T14:08:12.778Z,2.90
2018-09-20T14:10:41.206Z,2.90
2018-09-20T14:13:09.685Z,2.65
2018-09-20T14:15:38.141Z,2.55
2018-09-20T14:18:06.519Z,2.80
2018-09-20T14:20:34.989Z,2.72
2018-09-20T14:23:03.450Z,2.75
2018-09-20T14:25:31.854Z,2.80
2018-09-20T14:28:00.287Z,2.70
2018-09-20T14:30:28.666Z,2.70
2018-09-20T14:32:57.116Z,2.77
2018-09-20T14:35:25.603Z,2.80
2018-09-20T14:37:54.074Z,2.67
2018-09-20T14:40:22.489Z,2.87
2018-09-20T14:42:50.958Z,2.90
2018-09-20T14:45:19.474Z,2.70
2018-09-20T14:47:47.879Z,2.90
2018-09-20T14:50:16.278Z,2.50
2018-09-20T14:52:44.739Z,2.58
2018-09-20T14:55:13.169Z,2.83
2018-09-20T14:57:41.557Z,3.00
2018-09-20T15:00:10.017Z,2.70
2018-09-20T15:02:38.441Z,3.00
2018-09-20T15:05:07.098Z,2.42
2018-09-20T15:07:35.557Z,2.83
2018-09-20T15:10:04.041Z,2.83
2018-09-20T15:12:32.538Z,2.60
2018-09-20T15:15:00.956Z,2.62
2018-09-20T15:17:29.354Z,2.80
2018-09-20T15:19:57.818Z,3.08
2018-09-20T15:22:26.283Z,2.65
2018-09-20T15:24:54.694Z,2.80
2018-09-20T15:27:23.131Z,2.90
2018-09-20T15:29:51.549Z,2.80
2018-09-20T15:32:19.993Z,2.92
2018-09-20T15:34:48.373Z,3.20
2018-09-20T15:37:16.829Z,3.45
2018-09-20T15:39:45.238Z,3.25
2018-09-20T15:42:13.645Z,3.42
2018-09-20T15:44:42.084Z,2.75
2018-09-20T15:47:10.510Z,2.98
2018-09-20T15:49:38.922Z,3.60
2018-09-20T15:52:07.328Z,2.70
2018-09-20T15:54:35.841Z,3.17
2018-09-20T15:57:04.380Z,3.02
2018-09-20T15:59:32.784Z,3.08
2018-09-20T16:02:01.149Z,2.75
2018-09-20T16:04:29.593Z,2.60
2018-09-20T16:06:58.065Z,2.83
2018-09-20T16:09:26.450Z,2.70
2018-09-20T16:11:54.880Z,2.58
2018-09-20T16:14:23.350Z,2.70
2018-09-20T16:16:51.755Z,2.70
2018-09-20T16:19:20.190Z,2.67
2018-09-20T16:21:48.557Z,2.95
2018-09-20T16:24:16.992Z,2.58
2018-09-20T16:26:45.408Z,3.20
2018-09-20T16:29:23.148Z,3.00
2018-09-20T16:34:03.607Z,2.70
2018-09-20T16:36:39.690Z,3.08
2018-09-20T16:39:12.554Z,2.73
2018-09-20T16:41:42.311Z,3.07
2018-09-20T16:44:11.055Z,2.55
2018-09-20T16:46:39.498Z,2.83
2018-09-20T16:49:07.957Z,2.90
2018-09-20T16:51:36.333Z,3.10
2018-09-20T16:54:04.738Z,2.93
2018-09-20T16:56:33.202Z,3.03
2018-09-20T16:59:01.681Z,2.97
2018-09-20T17:01:30.155Z,2.90
2018-09-20T17:03:58.612Z,2.73
2018-09-20T17:06:27.061Z,3.00
2018-09-20T17:08:55.501Z,2.87
2018-09-20T17:11:23.890Z,2.90
2018-09-20T17:13:52.349Z,2.87
2018-09-20T17:16:20.850Z,2.70
2018-09-20T17:18:49.221Z,3.30
2018-09-20T17:21:17.663Z,3.30
2018-09-20T17:23:46.129Z,2.77
2018-09-20T17:26:14.618Z,3.17
2018-09-20T17:28:43.078Z,2.87
2018-09-20T17:31:11.482Z,3.23
2018-09-20T17:33:39.923Z,2.67
2018-09-20T17:36:08.509Z,2.87
2018-09-20T17:38:37.442Z,3.23
2018-09-20T17:41:08.938Z,2.83
2018-09-20T17:43:43.858Z,3.20
2018-09-20T17:46:12.337Z,3.03
2018-09-20T17:48:40.853Z,3.30
2018-09-20T17:51:10.241Z,3.33
2018-09-20T17:53:38.932Z,2.73
2018-09-20T17:56:07.981Z,2.83
2018-09-20T17:58:37.338Z,3.30
2018-09-20T18:01:05.782Z,3.00
2018-09-20T18:03:34.226Z,2.80
2018-09-20T18:06:02.744Z,2.90
2018-09-20T18:08:31.206Z,2.97
2018-09-20T18:10:59.654Z,3.07
2018-09-20T18:13:28.089Z,3.33
2018-09-20T18:15:56.499Z,3.30
2018-09-20T18:18:25.009Z,3.30
2018-09-20T18:20:53.352Z,3.50
2018-09-20T18:23:21.793Z,3.30
2018-09-20T18:25:50.253Z,3.13
2018-09-20T18:28:18.852Z,3.10
2018-09-20T18:30:47.276Z,3.10
2018-09-20T18:33:15.685Z,3.10
2018-09-20T18:35:44.194Z,3.17
2018-09-20T18:38:12.770Z,2.83
2018-09-20T18:40:41.195Z,3.30
2018-09-20T18:43:09.611Z,3.93
2018-09-20T18:45:38.045Z,3.00
2018-09-20T18:48:06.481Z,3.13
2018-09-20T18:50:34.918Z,3.20
2018-09-20T18:53:03.333Z,3.10
2018-09-20T18:55:32.856Z,3.40
2018-09-20T18:58:01.293Z,4.17
2018-09-20T19:00:29.719Z,3.43
2018-09-20T19:02:59.180Z,3.30
2018-09-20T19:05:27.615Z,3.17
2018-09-20T19:07:56.062Z,3.30
2018-09-20T19:10:24.517Z,3.27
2018-09-20T19:13:22.615Z,3.70
2018-09-20T19:15:51.035Z,3.13
2018-09-20T19:18:19.436Z,3.17
2018-09-20T19:20:47.966Z,3.50
2018-09-20T19:23:16.355Z,3.60
2018-09-20T19:25:44.856Z,3.20
2018-09-20T19:28:13.258Z,3.33
2018-09-20T19:30:41.669Z,3.10
2018-09-20T19:33:10.077Z,3.10
2018-09-20T19:35:38.533Z,3.17
2018-09-20T19:38:06.937Z,3.03
2018-09-20T19:40:35.443Z,3.40
2018-09-20T19:43:03.908Z,3.60
2018-09-20T19:45:32.395Z,3.50
2018-09-20T19:48:00.839Z,3.80
2018-09-20T19:50:29.309Z,3.50
2018-09-20T19:52:57.761Z,3.30
2018-09-20T19:55:26.183Z,3.43
2018-09-20T19:57:54.602Z,3.30
2018-09-20T20:00:23.108Z,3.40
2018-09-20T20:02:51.461Z,3.23
2018-09-20T20:05:19.950Z,3.83
2018-09-20T20:07:48.390Z,3.17
2018-09-20T20:10:16.806Z,3.20
2018-09-20T20:12:45.261Z,3.60
2018-09-20T20:15:13.739Z,3.17
2018-09-20T20:17:42.249Z,3.00
2018-09-20T20:20:10.706Z,3.33
2018-09-20T20:22:39.117Z,3.43
2018-09-20T20:25:07.554Z,3.33
2018-09-20T20:27:39.142Z,2.87
2018-09-20T20:30:07.592Z,3.00
2018-09-20T20:32:36.057Z,3.27
2018-09-20T20:35:04.441Z,3.30
2018-09-20T20:37:32.897Z,3.73
2018-09-20T20:40:01.375Z,3.50
2018-09-20T20:42:29.823Z,2.83
2018-09-20T20:44:58.274Z,3.37
2018-09-20T20:47:26.709Z,3.10
2018-09-20T20:49:55.334Z,3.47
2018-09-20T20:52:23.765Z,3.30
2018-09-20T20:54:52.182Z,3.40
2018-09-20T20:57:20.629Z,3.60
2018-09-20T20:59:49.079Z,3.50
2018-09-20T21:02:17.525Z,3.63
2018-09-20T21:04:46.119Z,3.80
2018-09-20T21:07:14.558Z,3.30
2018-09-20T21:09:43.142Z,3.30
2018-09-20T21:12:11.586Z,3.13
2018-09-20T21:14:40.051Z,4.03
2018-09-20T21:17:08.457Z,3.97
2018-09-20T21:19:36.880Z,3.70
2018-09-20T21:22:05.361Z,3.30
2018-09-20T21:24:34.675Z,3.40
2018-09-20T21:27:03.212Z,3.60
2018-09-20T21:29:31.660Z,3.60
2018-09-20T21:32:00.069Z,3.37
2018-09-20T21:34:28.458Z,3.23
2018-09-20T21:36:56.909Z,3.90
2018-09-20T21:39:25.314Z,3.90
2018-09-20T21:41:53.752Z,3.30
2018-09-20T21:44:22.225Z,3.47
2018-09-20T21:46:55.788Z,3.67
2018-09-20T21:49:24.316Z,3.70
2018-09-20T21:51:52.718Z,3.70
2018-09-20T21:54:21.085Z,3.37
2018-09-20T21:56:49.529Z,3.50
2018-09-20T21:59:18.066Z,3.63
2018-09-20T22:01:51.734Z,3.73
2018-09-20T22:04:20.125Z,3.43
2018-09-20T22:06:48.611Z,3.30
2018-09-20T22:09:17.036Z,3.53
2018-09-20T22:11:45.448Z,3.50
2018-09-20T22:14:13.841Z,3.60
2018-09-20T22:16:42.245Z,3.50
2018-09-20T22:19:10.689Z,3.50
2018-09-20T22:21:39.133Z,4.07
2018-09-20T22:24:07.538Z,3.60
2018-09-20T22:26:36.090Z,3.70
2018-09-20T22:29:04.578Z,3.60
2018-09-20T22:31:33.053Z,3.60
2018-09-20T22:34:01.597Z,4.10
2018-09-20T22:36:30.017Z,3.50
2018-09-20T22:38:58.473Z,3.80
2018-09-20T22:41:26.913Z,4.07
2018-09-20T22:43:55.292Z,3.83
2018-09-20T22:46:23.724Z,3.57
2018-09-20T22:48:52.116Z,3.87
2018-09-20T22:51:20.557Z,3.53
2018-09-20T22:53:49.075Z,4.23
2018-09-20T22:56:17.936Z,4.23
2018-09-20T22:58:46.342Z,4.17
2018-09-20T23:01:16.932Z,3.70
2018-09-20T23:03:45.885Z,3.60
2018-09-20T23:06:14.330Z,4.10
2018-09-20T23:08:42.825Z,4.37
2018-09-20T23:11:11.266Z,4.00
2018-09-20T23:13:39.705Z,3.90
2018-09-20T23:16:08.137Z,3.83
2018-09-20T23:18:36.551Z,4.07
2018-09-20T23:21:05.078Z,4.20
2018-09-20T23:23:33.500Z,3.93
2018-09-20T23:26:01.909Z,4.00
2018-09-20T23:28:30.334Z,3.63
2018-09-20T23:30:58.813Z,3.93
2018-09-20T23:33:27.343Z,4.27
2018-09-20T23:35:55.790Z,4.20
2018-09-20T23:38:24.250Z,4.00
2018-09-20T23:40:52.657Z,4.27
2018-09-20T23:43:21.118Z,4.40
2018-09-20T23:45:50.573Z,3.70
2018-09-20T23:48:19.047Z,3.73
2018-09-20T23:50:47.590Z,4.17
2018-09-20T23:53:16.026Z,4.00
2018-09-20T23:55:44.866Z,4.23
2018-09-20T23:58:13.336Z,4.13
